Terminal Aerodrome Forecast
Issued by NWS

Home | Current Version | Previous Version | Graphics & Text | Print | Product List | Glossary On
Versions: 1 2 3 4 5 6 7 8 9 10 11 12
000
FTUS42 KMHX 252300
TAFOAJ
TAF
KOAJ 252321Z 2600/2624 16006KT P6SM SKC
     FM260600 21003KT P6SM SCT100 BKN250
     FM261000 21003KT P6SM OVC100
     FM261600 24005KT P6SM OVC050
     FM262200 31006KT P6SM VCSH OVC030
      AMD LTD TO CLD VIS AND WIND=

USA.gov is the U.S. government's official web portal to all federal, state and local government web resources and services.